• Join FlightAware (Why Join?)
  • Login
  • US Flag 
12:24AM EDT


 

Airport Tracker/Info


-or-


 

Live Flight TrackerFlight Track Log ✈ THY2459 ✈ 31-Aug-2013 ✈ LTAF / ADA - LTBA / IST

Flight Track Log - Related Links

Times and Time Zones

All times are in EDT time to prevent confusion due to time zone crossing. See the THY2459 flight status page for this flight to view local times or setup timezone preferences in your user account.

Time Position Orientation Groundspeed Altitude Reporting Facility
EDT Latitude Longitude Course Direction KTS MPH feet Rate Location/Type
04:19AM 37.4566 34.5777 311° West  Level Estimated
04:20AM 37.5156 34.4892 310° West  Level Estimated
04:21AM 37.5745 34.4006 310° West  Level Estimated
04:22AM 37.6334 34.3119 310° West  Level Estimated
04:23AM 37.6922 34.2230 310° West  Level Estimated
04:24AM 37.7510 34.1340 310° West  Level Estimated
04:25AM 37.8096 34.0448 310° West  Level Estimated
04:26AM 37.8683 33.9555 310° West  Level Estimated
04:27AM 37.9268 33.8660 310° West  Level Estimated
04:28AM 37.9853 33.7765 310° West  Level Estimated
04:29AM 38.0437 33.6867 310° West  Level Estimated
04:30AM 38.1020 33.5968 310° West  Level Estimated
04:31AM 38.1603 33.5068 309° West  Level Estimated
04:32AM 38.2185 33.4166 309° West  Level Estimated
04:33AM 38.2766 33.3263 309° West  Level Estimated
04:34AM 38.3347 33.2359 309° West  Level Estimated
04:35AM 38.3927 33.1453 309° West  Level Estimated
04:36AM 38.4506 33.0545 309° West  Level Estimated
04:37AM 38.5084 32.9636 309° West  Level Estimated
04:38AM 38.5662 32.8726 309° West  Level Estimated
04:39AM 38.6239 32.7814 309° West  Level Estimated
04:40AM 38.6815 32.6901 309° West  Level Estimated
04:41AM 38.7391 32.5986 309° West  Level Estimated
04:42AM 38.7966 32.5070 309° West  Level Estimated
04:43AM 38.8540 32.4152 309° West  Level Estimated
04:44AM 38.9114 32.3233 309° West  Level Estimated
04:45AM 38.9687 32.2312 309° West  Level Estimated
04:46AM 39.0259 32.1390 309° West  Level Estimated
04:47AM 39.0830 32.0466 309° West  Level Estimated
04:48AM 39.1401 31.9541 309° West  Level Estimated
04:49AM 39.1971 31.8614 308° West  Level Estimated
04:50AM 39.2540 31.7686 308° West  Level Estimated
04:51AM 39.3108 31.6756 308° West  Level Estimated
04:52AM 39.3676 31.5825 308° West  Level Estimated
04:53AM 39.4243 31.4893 308° West  Level Estimated
04:54AM 39.4809 31.3958 308° West  Level Estimated
04:55AM 39.5375 31.3022 308° West  Level Estimated
04:56AM 39.5939 31.2085 308° West  Level Estimated
04:57AM 39.6503 31.1146 308° West  Level Estimated
04:58AM 39.7066 31.0206 308° West  Level Estimated
04:59AM 39.7629 30.9264 308° West  Level Estimated
05:00AM 39.8190 30.8321 308° West  Level Estimated
05:01AM 39.8751 30.7376 308° West  Level Estimated
05:02AM 39.9311 30.6429 308° West  Level Estimated
05:03AM 39.9871 30.5481 308° West  Level Estimated
05:04AM 40.0429 30.4532 308° West  Level Estimated
05:05AM 40.0987 30.3580 307° West  Level Estimated
05:06AM 40.1544 30.2628 307° West  Level Estimated
05:07AM 40.2100 30.1674 307° West  Level Estimated
05:08AM 40.2656 30.0718 307° West  Level Estimated
05:09AM 40.3211 29.9760 307° West  Level Estimated
05:10AM 40.3765 29.8801 307° West  Level Estimated
05:11AM 40.4318 29.7841 307° West  Level Estimated
05:12AM 40.4870 29.6879 307° West  Level Estimated
05:13AM 40.5421 29.5915 307° West  Level Estimated
05:14AM 40.5972 29.4950 307° West  Level Estimated
05:15AM 40.6522 29.3983 307° West  Level Estimated
05:16AM 40.7071 29.3014 307° West  Level Estimated
05:17AM 40.7620 29.2044 307° West  Level Estimated
05:18AM 40.8167 29.1072 307° West  Level Estimated
05:19AM 40.8713 29.0099 307° West  Level Estimated
05:20AM 40.9259 28.9124 307° West  Level Estimated
05:21AM 40.9769 28.8211 306° West  Level Estimated
05:22AM 40.9769 28.8211 21° North  Level Estimated
05:23AM 40.9769 28.8211 21° North  Level Estimated
05:24AM 40.9769 28.8211 21° North  Level Estimated
05:25AM 40.9769 28.8211 21° North  Level Estimated
05:26AM 40.9769 28.8211 21° North  Level Estimated
05:27AM 40.9769 28.8211 21° North  Level Estimated
05:28AM 40.9769 28.8211 21° North  Level Estimated
05:29AM 40.9769 28.8211 21° North  Level Estimated
05:30AM 40.9769 28.8211 21° North  Level Estimated
05:31AM 40.9769 28.8211 21° North  Level Estimated
05:32AM 40.9769 28.8211 21° North  Level Estimated
05:33AM 40.9769 28.8211 21° North  Level Estimated
05:34AM 40.9769 28.8211 21° North  Level Estimated
05:35AM 40.9769 28.8211 21° North  Level Estimated
05:36AM 40.9769 28.8211 21° North  Level Estimated
05:37AM 40.9769 28.8211 21° North  Level Estimated